sensor_id;sensor_type;location;lat;lon;timestamp;pressure;altitude;pressure_sealevel;temperature;humidity
14204;BME280;7185;51.854;6.622;2023-04-23T00:02:19;100523.66;;;13.83;79.07
14204;BME280;7185;51.854;6.622;2023-04-23T00:04:53;100532.75;;;13.74;79.16
14204;BME280;7185;51.854;6.622;2023-04-23T00:07:27;100527.56;;;13.71;79.66
14204;BME280;7185;51.854;6.622;2023-04-23T00:10:00;100526.66;;;13.72;80.02
14204;BME280;7185;51.854;6.622;2023-04-23T00:12:34;100518.03;;;13.67;79.92
14204;BME280;7185;51.854;6.622;2023-04-23T00:15:07;100511.59;;;13.76;79.45
14204;BME280;7185;51.854;6.622;2023-04-23T00:17:38;100515.28;;;13.70;79.31
14204;BME280;7185;51.854;6.622;2023-04-23T00:20:11;100501.28;;;13.68;79.32
14204;BME280;7185;51.854;6.622;2023-04-23T00:25:16;100514.09;;;13.52;80.25
14204;BME280;7185;51.854;6.622;2023-04-23T00:27:47;100507.13;;;13.51;80.14
14204;BME280;7185;51.854;6.622;2023-04-23T00:30:19;100511.75;;;13.43;80.41
14204;BME280;7185;51.854;6.622;2023-04-23T00:32:51;100507.13;;;13.51;79.89
14204;BME280;7185;51.854;6.622;2023-04-23T00:35:24;100504.19;;;13.60;79.72
14204;BME280;7185;51.854;6.622;2023-04-23T00:37:55;100501.47;;;13.63;79.51
14204;BME280;7185;51.854;6.622;2023-04-23T00:40:27;100499.84;;;13.59;79.33
14204;BME280;7185;51.854;6.622;2023-04-23T00:42:59;100499.84;;;13.59;79.62
14204;BME280;7185;51.854;6.622;2023-04-23T00:45:31;100504.91;;;13.65;79.44
14204;BME280;7185;51.854;6.622;2023-04-23T00:48:03;100501.63;;;13.59;79.71
14204;BME280;7185;51.854;6.622;2023-04-23T00:50:37;100499.31;;;13.48;79.80
14204;BME280;7185;51.854;6.622;2023-04-23T00:53:09;100493.03;;;13.52;79.94
14204;BME280;7185;51.854;6.622;2023-04-23T00:55:40;100497.84;;;13.39;80.17
14204;BME280;7185;51.854;6.622;2023-04-23T00:58:12;100498.50;;;13.46;80.13
14204;BME280;7185;51.854;6.622;2023-04-23T01:00:45;100494.13;;;13.45;80.27
14204;BME280;7185;51.854;6.622;2023-04-23T01:03:17;100505.59;;;13.44;80.36
14204;BME280;7185;51.854;6.622;2023-04-23T01:05:53;100504.63;;;13.46;80.25
14204;BME280;7185;51.854;6.622;2023-04-23T01:08:25;100506.06;;;13.57;79.67
14204;BME280;7185;51.854;6.622;2023-04-23T01:10:57;100496.00;;;13.41;80.14
14204;BME280;7185;51.854;6.622;2023-04-23T01:13:29;100500.69;;;13.31;80.91
14204;BME280;7185;51.854;6.622;2023-04-23T01:16:00;100493.22;;;13.17;81.40
14204;BME280;7185;51.854;6.622;2023-04-23T01:18:32;100492.16;;;13.23;80.76
14204;BME280;7185;51.854;6.622;2023-04-23T01:21:05;100488.22;;;13.08;81.54
14204;BME280;7185;51.854;6.622;2023-04-23T01:23:39;100487.91;;;13.19;81.56
14204;BME280;7185;51.854;6.622;2023-04-23T01:26:10;100496.31;;;13.02;81.94
14204;BME280;7185;51.854;6.622;2023-04-23T01:28:44;100488.78;;;12.89;82.82
14204;BME280;7185;51.854;6.622;2023-04-23T01:31:16;100487.84;;;12.92;82.51
14204;BME280;7185;51.854;6.622;2023-04-23T01:33:50;100495.59;;;12.97;82.39
14204;BME280;7185;51.854;6.622;2023-04-23T01:36:22;100482.47;;;12.95;82.35
14204;BME280;7185;51.854;6.622;2023-04-23T01:38:55;100491.56;;;12.85;82.86
14204;BME280;7185;51.854;6.622;2023-04-23T01:41:27;100481.28;;;12.75;83.29
14204;BME280;7185;51.854;6.622;2023-04-23T01:43:59;100483.19;;;12.70;83.43
14204;BME280;7185;51.854;6.622;2023-04-23T01:46:31;100474.03;;;12.84;82.58
14204;BME280;7185;51.854;6.622;2023-04-23T01:49:02;100470.69;;;12.79;82.67
14204;BME280;7185;51.854;6.622;2023-04-23T01:51:34;100476.81;;;12.79;82.67
14204;BME280;7185;51.854;6.622;2023-04-23T01:54:07;100477.94;;;12.70;82.63
14204;BME280;7185;51.854;6.622;2023-04-23T01:56:38;100481.47;;;12.69;82.84
14204;BME280;7185;51.854;6.622;2023-04-23T01:59:12;100479.81;;;12.65;83.09
14204;BME280;7185;51.854;6.622;2023-04-23T02:01:44;100484.41;;;12.58;83.22
14204;BME280;7185;51.854;6.622;2023-04-23T02:04:16;100484.41;;;12.58;83.36
14204;BME280;7185;51.854;6.622;2023-04-23T02:06:49;100478.97;;;12.65;83.22
14204;BME280;7185;51.854;6.622;2023-04-23T02:09:22;100482.16;;;12.76;82.65
14204;BME280;7185;51.854;6.622;2023-04-23T02:11:54;100474.13;;;12.81;82.58
14204;BME280;7185;51.854;6.622;2023-04-23T02:14:26;100475.84;;;12.82;82.39
14204;BME280;7185;51.854;6.622;2023-04-23T02:16:58;100476.25;;;12.98;81.95
14204;BME280;7185;51.854;6.622;2023-04-23T02:19:30;100470.66;;;13.08;81.28
14204;BME280;7185;51.854;6.622;2023-04-23T02:22:04;100467.19;;;13.08;81.44
14204;BME280;7185;51.854;6.622;2023-04-23T02:24:38;100463.50;;;13.14;81.56
14204;BME280;7185;51.854;6.622;2023-04-23T02:27:11;100466.16;;;13.12;81.38
14204;BME280;7185;51.854;6.622;2023-04-23T02:29:44;100466.22;;;13.11;81.62
14204;BME280;7185;51.854;6.622;2023-04-23T02:32:16;100459.34;;;13.06;81.19
14204;BME280;7185;51.854;6.622;2023-04-23T02:34:48;100462.75;;;13.08;81.37
14204;BME280;7185;51.854;6.622;2023-04-23T02:37:19;100455.69;;;13.11;81.76
14204;BME280;7185;51.854;6.622;2023-04-23T02:39:53;100446.75;;;13.15;81.05
14204;BME280;7185;51.854;6.622;2023-04-23T02:42:25;100446.75;;;13.15;80.64
14204;BME280;7185;51.854;6.622;2023-04-23T02:44:56;100453.06;;;13.11;81.17
14204;BME280;7185;51.854;6.622;2023-04-23T02:47:28;100450.63;;;13.04;81.65
14204;BME280;7185;51.854;6.622;2023-04-23T02:50:00;100447.28;;;12.99;81.54
14204;BME280;7185;51.854;6.622;2023-04-23T02:52:35;100440.28;;;12.98;81.58
14204;BME280;7185;51.854;6.622;2023-04-23T02:55:08;100439.38;;;12.99;81.37
14204;BME280;7185;51.854;6.622;2023-04-23T02:57:40;100447.94;;;12.76;81.55
14204;BME280;7185;51.854;6.622;2023-04-23T03:00:12;100446.81;;;12.55;83.23
14204;BME280;7185;51.854;6.622;2023-04-23T03:02:44;100454.00;;;12.50;83.10
14204;BME280;7185;51.854;6.622;2023-04-23T03:05:16;100448.22;;;12.37;83.98
14204;BME280;7185;51.854;6.622;2023-04-23T03:07:47;100453.72;;;12.27;84.08
14204;BME280;7185;51.854;6.622;2023-04-23T03:10:20;100445.03;;;12.25;84.33
14204;BME280;7185;51.854;6.622;2023-04-23T03:12:52;100452.09;;;12.23;85.08
14204;BME280;7185;51.854;6.622;2023-04-23T03:15:24;100438.53;;;12.06;85.70
14204;BME280;7185;51.854;6.622;2023-04-23T03:17:56;100439.72;;;11.94;86.79
14204;BME280;7185;51.854;6.622;2023-04-23T03:20:28;100440.78;;;11.85;87.35
14204;BME280;7185;51.854;6.622;2023-04-23T03:23:00;100441.66;;;11.86;90.99
14204;BME280;7185;51.854;6.622;2023-04-23T03:25:33;100438.22;;;11.84;90.95
14204;BME280;7185;51.854;6.622;2023-04-23T03:28:05;100438.94;;;11.90;90.28
14204;BME280;7185;51.854;6.622;2023-04-23T03:30:36;100433.53;;;11.97;89.75
14204;BME280;7185;51.854;6.622;2023-04-23T03:33:08;100438.50;;;12.07;89.36
14204;BME280;7185;51.854;6.622;2023-04-23T03:35:39;100437.97;;;11.93;90.01
14204;BME280;7185;51.854;6.622;2023-04-23T03:38:11;100435.69;;;11.79;90.42
14204;BME280;7185;51.854;6.622;2023-04-23T03:40:44;100435.13;;;12.02;89.87
14204;BME280;7185;51.854;6.622;2023-04-23T03:43:15;100438.22;;;11.84;90.60
14204;BME280;7185;51.854;6.622;2023-04-23T03:45:47;100436.69;;;11.75;91.04
14204;BME280;7185;51.854;6.622;2023-04-23T03:48:19;100429.34;;;11.88;90.80
14204;BME280;7185;51.854;6.622;2023-04-23T03:50:50;100428.41;;;11.90;90.83
14204;BME280;7185;51.854;6.622;2023-04-23T03:53:22;100419.00;;;11.82;91.27
14204;BME280;7185;51.854;6.622;2023-04-23T03:55:55;100427.38;;;11.96;90.69
14204;BME280;7185;51.854;6.622;2023-04-23T03:58:27;100427.22;;;12.04;89.70
14204;BME280;7185;51.854;6.622;2023-04-23T04:00:58;100421.84;;;12.07;89.26
14204;BME280;7185;51.854;6.622;2023-04-23T04:03:30;100421.19;;;12.00;89.45
14204;BME280;7185;51.854;6.622;2023-04-23T04:06:02;100415.03;;;12.01;89.97
14204;BME280;7185;51.854;6.622;2023-04-23T04:08:33;100403.28;;;11.80;90.00
14204;BME280;7185;51.854;6.622;2023-04-23T04:11:06;100401.50;;;11.80;90.65
14204;BME280;7185;51.854;6.622;2023-04-23T04:13:38;100410.22;;;11.83;90.71
14204;BME280;7185;51.854;6.622;2023-04-23T04:16:09;100408.41;;;11.85;90.22
14204;BME280;7185;51.854;6.622;2023-04-23T04:18:41;100409.31;;;11.84;90.23
14204;BME280;7185;51.854;6.622;2023-04-23T04:21:12;100401.50;;;11.80;90.29
14204;BME280;7185;51.854;6.622;2023-04-23T04:23:45;100408.13;;;11.95;89.47
14204;BME280;7185;51.854;6.622;2023-04-23T04:26:18;100408.66;;;11.75;90.97
14204;BME280;7185;51.854;6.622;2023-04-23T04:28:49;100405.22;;;11.73;91.11
14204;BME280;7185;51.854;6.622;2023-04-23T04:31:21;100415.72;;;11.73;90.87
14204;BME280;7185;51.854;6.622;2023-04-23T04:33:53;100422.63;;;11.77;90.51
14204;BME280;7185;51.854;6.622;2023-04-23T04:36:24;100422.03;;;11.66;90.94
14204;BME280;7185;51.854;6.622;2023-04-23T04:38:56;100424.78;;;11.60;91.55
14204;BME280;7185;51.854;6.622;2023-04-23T04:41:29;100430.78;;;11.67;91.37
14204;BME280;7185;51.854;6.622;2023-04-23T04:44:01;100418.75;;;11.58;91.59
14204;BME280;7185;51.854;6.622;2023-04-23T04:46:33;100417.84;;;11.59;91.91
14204;BME280;7185;51.854;6.622;2023-04-23T04:49:09;100421.06;;;11.70;91.39
14204;BME280;7185;51.854;6.622;2023-04-23T04:51:41;100417.88;;;11.57;92.01
14204;BME280;7185;51.854;6.622;2023-04-23T04:54:13;100413.91;;;11.75;91.43
14204;BME280;7185;51.854;6.622;2023-04-23T04:56:46;100408.41;;;11.85;91.67
14204;BME280;7185;51.854;6.622;2023-04-23T04:59:17;100408.47;;;11.82;92.76
14204;BME280;7185;51.854;6.622;2023-04-23T05:01:49;100411.72;;;11.91;93.08
14204;BME280;7185;51.854;6.622;2023-04-23T05:04:21;100412.47;;;11.98;92.70
14204;BME280;7185;51.854;6.622;2023-04-23T05:06:52;100412.53;;;11.97;94.17
14204;BME280;7185;51.854;6.622;2023-04-23T05:09:24;100413.00;;;12.11;94.38
14204;BME280;7185;51.854;6.622;2023-04-23T05:11:57;100411.69;;;12.26;93.73
14204;BME280;7185;51.854;6.622;2023-04-23T05:14:28;100412.81;;;12.17;94.64
14204;BME280;7185;51.854;6.622;2023-04-23T05:17:00;100412.41;;;12.33;94.88
14204;BME280;7185;51.854;6.622;2023-04-23T05:19:32;100409.53;;;12.40;96.07
14204;BME280;7185;51.854;6.622;2023-04-23T05:22:03;100416.28;;;12.49;95.22
14204;BME280;7185;51.854;6.622;2023-04-23T05:24:35;100414.25;;;12.59;94.31
14204;BME280;7185;51.854;6.622;2023-04-23T05:27:09;100413.53;;;12.54;95.02
14204;BME280;7185;51.854;6.622;2023-04-23T05:29:41;100420.53;;;12.55;95.57
14204;BME280;7185;51.854;6.622;2023-04-23T05:32:12;100408.53;;;12.74;95.16
14204;BME280;7185;51.854;6.622;2023-04-23T05:34:44;100415.72;;;12.69;95.42
14204;BME280;7185;51.854;6.622;2023-04-23T05:37:15;100413.25;;;12.93;94.06
14204;BME280;7185;51.854;6.622;2023-04-23T05:39:47;100413.66;;;13.07;93.41
14204;BME280;7185;51.854;6.622;2023-04-23T05:42:20;100406.50;;;13.13;93.82
14204;BME280;7185;51.854;6.622;2023-04-23T05:44:52;100400.22;;;13.17;93.66
14204;BME280;7185;51.854;6.622;2023-04-23T05:47:23;100405.31;;;13.21;93.37
14204;BME280;7185;51.854;6.622;2023-04-23T05:49:55;100411.34;;;13.25;93.90
14204;BME280;7185;51.854;6.622;2023-04-23T05:52:27;100411.28;;;13.28;94.05
14204;BME280;7185;51.854;6.622;2023-04-23T05:55:00;100408.47;;;13.33;93.88
14204;BME280;7185;51.854;6.622;2023-04-23T05:57:34;100420.31;;;13.48;92.63
14204;BME280;7185;51.854;6.622;2023-04-23T06:00:07;100412.97;;;13.58;92.00
14204;BME280;7185;51.854;6.622;2023-04-23T06:02:40;100429.63;;;13.58;91.74
14204;BME280;7185;51.854;6.622;2023-04-23T06:05:12;100425.66;;;13.71;91.10
14204;BME280;7185;51.854;6.622;2023-04-23T06:07:44;100420.59;;;13.65;91.06
14204;BME280;7185;51.854;6.622;2023-04-23T06:10:15;100424.03;;;13.67;90.82
14204;BME280;7185;51.854;6.622;2023-04-23T06:12:48;100410.88;;;13.67;90.45
14204;BME280;7185;51.854;6.622;2023-04-23T06:15:20;100413.38;;;13.96;90.34
14204;BME280;7185;51.854;6.622;2023-04-23T06:17:56;100410.13;;;13.89;89.49
14204;BME280;7185;51.854;6.622;2023-04-23T06:20:28;100412.16;;;14.06;88.81
14204;BME280;7185;51.854;6.622;2023-04-23T06:23:00;100410.97;;;13.90;88.23
14204;BME280;7185;51.854;6.622;2023-04-23T06:25:32;100405.94;;;14.32;87.01
14204;BME280;7185;51.854;6.622;2023-04-23T06:28:05;100404.97;;;14.35;85.82
14204;BME280;7185;51.854;6.622;2023-04-23T06:30:37;100400.53;;;14.35;86.32
14204;BME280;7185;51.854;6.622;2023-04-23T06:33:08;100402.94;;;14.42;85.72
14204;BME280;7185;51.854;6.622;2023-04-23T06:35:40;100396.88;;;14.16;86.74
14204;BME280;7185;51.854;6.622;2023-04-23T06:38:12;100392.53;;;14.39;86.26
14204;BME280;7185;51.854;6.622;2023-04-23T06:40:43;100398.88;;;14.57;86.03
14204;BME280;7185;51.854;6.622;2023-04-23T06:43:17;100387.03;;;14.69;85.48
14204;BME280;7185;51.854;6.622;2023-04-23T06:45:48;100386.78;;;14.75;85.58
14204;BME280;7185;51.854;6.622;2023-04-23T06:48:20;100377.34;;;14.69;84.92
14204;BME280;7185;51.854;6.622;2023-04-23T06:50:51;100386.47;;;15.05;84.95
14204;BME280;7185;51.854;6.622;2023-04-23T06:53:23;100371.34;;;15.10;83.00
14204;BME280;7185;51.854;6.622;2023-04-23T06:55:55;100372.16;;;15.33;82.32
14204;BME280;7185;51.854;6.622;2023-04-23T06:58:28;100382.13;;;15.26;81.53
14204;BME280;7185;51.854;6.622;2023-04-23T07:01:01;100372.91;;;15.14;81.68
14204;BME280;7185;51.854;6.622;2023-04-23T07:03:34;100377.63;;;15.28;81.86
14204;BME280;7185;51.854;6.622;2023-04-23T07:06:06;100373.22;;;15.70;80.84
14204;BME280;7185;51.854;6.622;2023-04-23T07:08:38;100376.72;;;15.29;80.34
14204;BME280;7185;51.854;6.622;2023-04-23T07:11:09;100373.41;;;15.65;80.04
14204;BME280;7185;51.854;6.622;2023-04-23T07:13:43;100369.03;;;15.86;78.74
14204;BME280;7185;51.854;6.622;2023-04-23T07:16:14;100370.31;;;15.97;79.06
14204;BME280;7185;51.854;6.622;2023-04-23T07:18:46;100373.88;;;16.16;76.85
14204;BME280;7185;51.854;6.622;2023-04-23T07:21:17;100359.88;;;16.52;74.71
14204;BME280;7185;51.854;6.622;2023-04-23T07:23:49;100358.97;;;15.74;75.86
14204;BME280;7185;51.854;6.622;2023-04-23T07:26:20;100357.44;;;16.67;75.00
14204;BME280;7185;51.854;6.622;2023-04-23T07:28:53;100358.47;;;16.45;74.49
14204;BME280;7185;51.854;6.622;2023-04-23T07:31:25;100355.03;;;16.62;73.65
14204;BME280;7185;51.854;6.622;2023-04-23T07:33:57;100353.28;;;16.80;73.78
14204;BME280;7185;51.854;6.622;2023-04-23T07:36:29;100355.31;;;16.37;73.57
14204;BME280;7185;51.854;6.622;2023-04-23T07:39:01;100346.50;;;17.11;73.33
14204;BME280;7185;51.854;6.622;2023-04-23T07:41:33;100354.16;;;17.35;70.70
14204;BME280;7185;51.854;6.622;2023-04-23T07:44:07;100344.69;;;16.94;70.17
14204;BME280;7185;51.854;6.622;2023-04-23T07:46:39;100347.84;;;17.38;70.02
14204;BME280;7185;51.854;6.622;2023-04-23T07:49:10;100343.16;;;17.60;69.55
14204;BME280;7185;51.854;6.622;2023-04-23T07:51:42;100346.81;;;17.40;68.67
14204;BME280;7185;51.854;6.622;2023-04-23T07:54:13;100342.13;;;17.98;69.68
14204;BME280;7185;51.854;6.622;2023-04-23T07:56:45;100342.66;;;17.87;69.62
14204;BME280;7185;51.854;6.622;2023-04-23T07:59:18;100345.78;;;17.95;68.23
14204;BME280;7185;51.854;6.622;2023-04-23T08:01:50;100341.75;;;18.22;68.34
14204;BME280;7185;51.854;6.622;2023-04-23T08:04:22;100342.56;;;18.06;65.39
14204;BME280;7185;51.854;6.622;2023-04-23T08:06:53;100341.38;;;17.94;65.75
14204;BME280;7185;51.854;6.622;2023-04-23T08:09:25;100336.69;;;18.33;65.39
14204;BME280;7185;51.854;6.622;2023-04-23T08:11:56;100334.28;;;18.12;65.07
14204;BME280;7185;51.854;6.622;2023-04-23T08:14:29;100338.59;;;18.63;65.34
14204;BME280;7185;51.854;6.622;2023-04-23T08:17:01;100334.81;;;18.67;63.91
14204;BME280;7185;51.854;6.622;2023-04-23T08:19:32;100329.44;;;19.15;64.11
14204;BME280;7185;51.854;6.622;2023-04-23T08:22:04;100332.38;;;19.10;62.55
14204;BME280;7185;51.854;6.622;2023-04-23T08:24:36;100331.03;;;18.87;61.12
14204;BME280;7185;51.854;6.622;2023-04-23T08:27:07;100325.19;;;19.13;61.90
14204;BME280;7185;51.854;6.622;2023-04-23T08:29:40;100321.81;;;19.39;60.75
14204;BME280;7185;51.854;6.622;2023-04-23T08:32:12;100325.84;;;19.47;60.94
14204;BME280;7185;51.854;6.622;2023-04-23T08:34:43;100320.16;;;19.67;60.75
14204;BME280;7185;51.854;6.622;2023-04-23T08:37:15;100323.03;;;19.93;59.61
14204;BME280;7185;51.854;6.622;2023-04-23T08:39:48;100322.69;;;20.56;59.83
14204;BME280;7185;51.854;6.622;2023-04-23T08:42:25;100318.41;;;20.53;58.14
14204;BME280;7185;51.854;6.622;2023-04-23T08:45:03;100321.91;;;20.26;58.13
14204;BME280;7185;51.854;6.622;2023-04-23T08:47:36;100319.69;;;21.02;57.99
14204;BME280;7185;51.854;6.622;2023-04-23T08:50:13;100317.41;;;21.23;56.30
14204;BME280;7185;51.854;6.622;2023-04-23T08:52:49;100322.31;;;21.29;55.99
14204;BME280;7185;51.854;6.622;2023-04-23T08:55:23;100322.16;;;21.05;53.72
14204;BME280;7185;51.854;6.622;2023-04-23T08:57:57;100313.97;;;21.21;54.88
14204;BME280;7185;51.854;6.622;2023-04-23T09:00:30;100318.66;;;20.77;56.32
14204;BME280;7185;51.854;6.622;2023-04-23T09:03:02;100311.66;;;21.29;56.84
14204;BME280;7185;51.854;6.622;2023-04-23T09:05:35;100315.47;;;21.25;54.95
14204;BME280;7185;51.854;6.622;2023-04-23T09:08:07;100314.66;;;21.38;54.86
14204;BME280;7185;51.854;6.622;2023-04-23T09:10:52;100305.94;;;21.87;54.21
14204;BME280;7185;51.854;6.622;2023-04-23T09:13:32;100302.16;;;22.03;51.31
14204;BME280;7185;51.854;6.622;2023-04-23T09:16:11;100299.34;;;22.43;51.24
14204;BME280;7185;51.854;6.622;2023-04-23T09:18:59;100305.94;;;22.74;50.84
14204;BME280;7185;51.854;6.622;2023-04-23T09:21:54;100305.00;;;23.11;50.61
14204;BME280;7185;51.854;6.622;2023-04-23T09:24:33;100301.53;;;22.98;49.20
14204;BME280;7185;51.854;6.622;2023-04-23T09:30:42;100301.84;;;22.57;49.56
14204;BME280;7185;51.854;6.622;2023-04-23T09:33:16;100282.56;;;22.89;47.79
14204;BME280;7185;51.854;6.622;2023-04-23T09:35:48;100293.53;;;22.73;48.84
14204;BME280;7185;51.854;6.622;2023-04-23T09:38:19;100288.75;;;22.41;47.76
14204;BME280;7185;51.854;6.622;2023-04-23T09:40:51;100285.75;;;23.30;47.06
14204;BME280;7185;51.854;6.622;2023-04-23T09:43:22;100270.94;;;23.49;46.36
14204;BME280;7185;51.854;6.622;2023-04-23T09:45:54;100280.84;;;23.71;44.80
14204;BME280;7185;51.854;6.622;2023-04-23T09:48:39;100275.34;;;22.79;46.74
14204;BME280;7185;51.854;6.622;2023-04-23T09:51:12;100286.00;;;23.03;48.24
14204;BME280;7185;51.854;6.622;2023-04-23T09:53:44;100274.22;;;23.52;46.31
14204;BME280;7185;51.854;6.622;2023-04-23T09:56:18;100274.56;;;23.36;44.71
14204;BME280;7185;51.854;6.622;2023-04-23T09:58:50;100276.22;;;22.79;46.60
14204;BME280;7185;51.854;6.622;2023-04-23T10:01:27;100273.84;;;22.13;47.61
14204;BME280;7185;51.854;6.622;2023-04-23T10:04:00;100265.50;;;22.31;46.21
14204;BME280;7185;51.854;6.622;2023-04-23T10:06:32;100272.41;;;21.83;47.82
14204;BME280;7185;51.854;6.622;2023-04-23T10:09:03;100269.44;;;22.25;47.16
14204;BME280;7185;51.854;6.622;2023-04-23T10:11:35;100270.78;;;22.43;46.65
14204;BME280;7185;51.854;6.622;2023-04-23T10:14:08;100264.00;;;22.39;47.41
14204;BME280;7185;51.854;6.622;2023-04-23T10:16:40;100271.63;;;22.92;47.16
14204;BME280;7185;51.854;6.622;2023-04-23T10:19:16;100266.94;;;23.43;45.92
14204;BME280;7185;51.854;6.622;2023-04-23T10:21:49;100269.25;;;22.52;44.63
14204;BME280;7185;51.854;6.622;2023-04-23T10:24:24;100276.81;;;22.34;46.04
14204;BME280;7185;51.854;6.622;2023-04-23T10:26:59;100275.00;;;21.72;44.87
14204;BME280;7185;51.854;6.622;2023-04-23T10:29:33;100273.53;;;22.18;45.73
14204;BME280;7185;51.854;6.622;2023-04-23T10:32:05;100265.16;;;22.59;45.66
14204;BME280;7185;51.854;6.622;2023-04-23T10:34:39;100260.19;;;22.05;47.62
14204;BME280;7185;51.854;6.622;2023-04-23T10:37:12;100261.34;;;22.75;44.15
14204;BME280;7185;51.854;6.622;2023-04-23T10:39:49;100255.28;;;22.49;45.39
14204;BME280;7185;51.854;6.622;2023-04-23T10:42:21;100255.03;;;22.27;45.59
14204;BME280;7185;51.854;6.622;2023-04-23T10:44:55;100248.34;;;22.09;44.24
14204;BME280;7185;51.854;6.622;2023-04-23T10:47:26;100261.84;;;21.94;45.42
14204;BME280;7185;51.854;6.622;2023-04-23T10:50:17;100233.66;;;22.40;45.07
14204;BME280;7185;51.854;6.622;2023-04-23T10:52:49;100234.91;;;21.97;43.81
14204;BME280;7185;51.854;6.622;2023-04-23T10:55:24;100246.09;;;22.16;44.61
14204;BME280;7185;51.854;6.622;2023-04-23T10:58:01;100235.94;;;22.45;43.97
14204;BME280;7185;51.854;6.622;2023-04-23T11:00:43;100233.44;;;22.79;42.85
14204;BME280;7185;51.854;6.622;2023-04-23T11:03:32;100221.78;;;23.27;43.06
14204;BME280;7185;51.854;6.622;2023-04-23T11:06:12;100222.22;;;23.10;43.35
14204;BME280;7185;51.854;6.622;2023-04-23T11:08:50;100228.13;;;22.55;42.62
14204;BME280;7185;51.854;6.622;2023-04-23T11:11:24;100224.13;;;22.60;43.43
14204;BME280;7185;51.854;6.622;2023-04-23T11:14:12;100223.94;;;21.89;46.39
14204;BME280;7185;51.854;6.622;2023-04-23T11:16:44;100214.94;;;22.40;44.75
14204;BME280;7185;51.854;6.622;2023-04-23T11:19:16;100210.72;;;22.85;42.98
14204;BME280;7185;51.854;6.622;2023-04-23T11:21:59;100204.91;;;23.27;44.77
14204;BME280;7185;51.854;6.622;2023-04-23T11:24:32;100195.56;;;23.44;42.66
14204;BME280;7185;51.854;6.622;2023-04-23T11:27:07;100191.03;;;23.67;43.76
14204;BME280;7185;51.854;6.622;2023-04-23T11:29:40;100197.09;;;24.03;41.36
14204;BME280;7185;51.854;6.622;2023-04-23T11:32:16;100191.16;;;23.99;38.59
14204;BME280;7185;51.854;6.622;2023-04-23T11:34:47;100190.44;;;23.75;39.46
14204;BME280;7185;51.854;6.622;2023-04-23T11:37:21;100178.69;;;24.42;38.56
14204;BME280;7185;51.854;6.622;2023-04-23T11:39:52;100179.25;;;24.57;38.34
14204;BME280;7185;51.854;6.622;2023-04-23T11:42:25;100166.34;;;24.30;39.62
14204;BME280;7185;51.854;6.622;2023-04-23T11:44:57;100160.66;;;24.56;38.10
14204;BME280;7185;51.854;6.622;2023-04-23T11:47:29;100155.50;;;23.99;39.03
14204;BME280;7185;51.854;6.622;2023-04-23T11:50:02;100159.66;;;23.46;38.39
14204;BME280;7185;51.854;6.622;2023-04-23T11:52:35;100160.63;;;23.68;42.94
14204;BME280;7185;51.854;6.622;2023-04-23T11:55:07;100150.66;;;23.13;40.77
14204;BME280;7185;51.854;6.622;2023-04-23T11:57:42;100150.06;;;22.63;40.45
14204;BME280;7185;51.854;6.622;2023-04-23T12:00:16;100150.13;;;22.50;43.65
14204;BME280;7185;51.854;6.622;2023-04-23T12:02:52;100149.59;;;22.80;41.57
14204;BME280;7185;51.854;6.622;2023-04-23T12:05:27;100148.28;;;22.39;42.37
14204;BME280;7185;51.854;6.622;2023-04-23T12:08:07;100140.31;;;22.50;41.61
14204;BME280;7185;51.854;6.622;2023-04-23T12:10:45;100141.16;;;22.26;41.68
14204;BME280;7185;51.854;6.622;2023-04-23T12:13:18;100137.38;;;22.53;43.47
14204;BME280;7185;51.854;6.622;2023-04-23T12:15:55;100127.44;;;22.44;42.68
14204;BME280;7185;51.854;6.622;2023-04-23T12:18:27;100118.00;;;22.63;39.63
14204;BME280;7185;51.854;6.622;2023-04-23T12:21:04;100122.16;;;22.89;40.40
14204;BME280;7185;51.854;6.622;2023-04-23T12:23:39;100110.31;;;23.28;38.16
14204;BME280;7185;51.854;6.622;2023-04-23T12:26:14;100105.59;;;23.98;37.65
14204;BME280;7185;51.854;6.622;2023-04-23T12:28:49;100109.06;;;22.98;37.51
14204;BME280;7185;51.854;6.622;2023-04-23T12:31:21;100100.50;;;23.83;41.00
14204;BME280;7185;51.854;6.622;2023-04-23T12:33:57;100101.00;;;24.42;36.54
14204;BME280;7185;51.854;6.622;2023-04-23T12:36:30;100090.13;;;24.76;36.54
14204;BME280;7185;51.854;6.622;2023-04-23T12:39:26;100093.75;;;24.33;38.63
14204;BME280;7185;51.854;6.622;2023-04-23T12:42:00;100096.09;;;23.94;36.70
14204;BME280;7185;51.854;6.622;2023-04-23T12:44:35;100087.00;;;25.02;37.61
14204;BME280;7185;51.854;6.622;2023-04-23T12:47:08;100081.00;;;24.89;35.16
14204;BME280;7185;51.854;6.622;2023-04-23T12:49:40;100081.78;;;25.41;35.32
14204;BME280;7185;51.854;6.622;2023-04-23T12:52:12;100078.81;;;25.04;36.63
14204;BME280;7185;51.854;6.622;2023-04-23T12:54:45;100072.09;;;25.60;36.73
14204;BME280;7185;51.854;6.622;2023-04-23T12:57:21;100073.41;;;24.94;35.90
14204;BME280;7185;51.854;6.622;2023-04-23T12:59:54;100067.75;;;23.47;37.24
14204;BME280;7185;51.854;6.622;2023-04-23T13:02:25;100066.44;;;23.85;37.86
14204;BME280;7185;51.854;6.622;2023-04-23T13:04:57;100068.94;;;23.09;38.93
14204;BME280;7185;51.854;6.622;2023-04-23T13:07:30;100065.03;;;22.56;39.62
14204;BME280;7185;51.854;6.622;2023-04-23T13:10:03;100048.31;;;22.66;40.14
14204;BME280;7185;51.854;6.622;2023-04-23T13:12:35;100051.78;;;22.08;39.64
14204;BME280;7185;51.854;6.622;2023-04-23T13:15:07;100051.34;;;21.90;40.70
14204;BME280;7185;51.854;6.622;2023-04-23T13:17:39;100049.75;;;21.50;40.81
14204;BME280;7185;51.854;6.622;2023-04-23T13:20:11;100042.13;;;21.70;41.95
14204;BME280;7185;51.854;6.622;2023-04-23T13:22:42;100037.75;;;21.93;41.35
14204;BME280;7185;51.854;6.622;2023-04-23T13:25:15;100027.78;;;21.84;44.78
14204;BME280;7185;51.854;6.622;2023-04-23T13:27:47;100047.63;;;22.04;45.95
14204;BME280;7185;51.854;6.622;2023-04-23T13:30:19;100038.72;;;22.27;46.10
14204;BME280;7185;51.854;6.622;2023-04-23T13:32:50;100029.09;;;22.60;47.10
14204;BME280;7185;51.854;6.622;2023-04-23T13:35:22;100018.53;;;22.93;45.00
14204;BME280;7185;51.854;6.622;2023-04-23T13:37:54;100014.75;;;23.30;44.26